AFL510 URSS-UBBB
Flight info
| Callsign | AFL510 |
|---|---|
| Flight time | N/A |
| Altitude | 35000 |
| Route | IRGID1T IRGID A944 RESLO B491 BAPNI A837 MOTEG/N0433F350 N23 ERLEV |
| Aircraft | A320/M-SDE3FGHIRWY/LB1 |
Departure
| Time | N/A |
|---|---|
| Airport | Sochi International Airport (URSS) |
Arrival
| Time | 2026-04-30 18:17 |
|---|---|
| Airport | Heydar Aliyev International Airport (UBBB) |
| Time | Latitude | Longitude | Altitude | Speed | Heading |
|---|---|---|---|---|---|
| 2026-04-30 17:39 | 42.33312 | 47.32153 | 35187 ft | 473 kts | 131° |
| 2026-04-30 17:42 | 42.13213 | 47.67149 | 35170 ft | 471 kts | 131° |
| 2026-04-30 17:43 | 42.03191 | 47.84461 | 35166 ft | 470 kts | 131° |
| 2026-04-30 17:44 | 41.91105 | 48.05198 | 35170 ft | 469 kts | 131° |
| 2026-04-30 17:47 | 41.72923 | 48.36124 | 35153 ft | 471 kts | 131° |
| 2026-04-30 17:48 | 41.63645 | 48.48394 | 32728 ft | 467 kts | 151° |
| 2026-04-30 17:48 | 41.55553 | 48.55295 | 30986 ft | 457 kts | 151° |
| 2026-04-30 17:49 | 41.44982 | 48.64244 | 28727 ft | 442 kts | 151° |
| 2026-04-30 17:50 | 41.35626 | 48.72121 | 26774 ft | 427 kts | 150° |
| 2026-04-30 17:51 | 41.28186 | 48.78374 | 25245 ft | 416 kts | 150° |
| 2026-04-30 17:52 | 41.20922 | 48.84451 | 23801 ft | 407 kts | 150° |
| 2026-04-30 17:53 | 41.09207 | 48.94246 | 21358 ft | 389 kts | 150° |
| 2026-04-30 17:54 | 41.00152 | 49.01779 | 19527 ft | 379 kts | 150° |
| 2026-04-30 17:55 | 40.91355 | 49.09066 | 17847 ft | 368 kts | 150° |
| 2026-04-30 17:56 | 40.82777 | 49.16159 | 16040 ft | 360 kts | 149° |
| 2026-04-30 17:57 | 40.76520 | 49.21371 | 14859 ft | 353 kts | 144° |
| 2026-04-30 17:58 | 40.72958 | 49.29417 | 14005 ft | 336 kts | 95° |
| 2026-04-30 17:59 | 40.72637 | 49.41386 | 13657 ft | 324 kts | 91° |
| 2026-04-30 18:00 | 40.72337 | 49.53215 | 13285 ft | 321 kts | 91° |
| 2026-04-30 18:00 | 40.72112 | 49.62023 | 13012 ft | 320 kts | 91° |
| 2026-04-30 18:01 | 40.71955 | 49.67813 | 12836 ft | 319 kts | 91° |
| 2026-04-30 18:02 | 40.69789 | 49.75727 | 12568 ft | 317 kts | 142° |
| 2026-04-30 18:02 | 40.63598 | 49.77112 | 12272 ft | 312 kts | 189° |
| 2026-04-30 18:03 | 40.57168 | 49.75993 | 11759 ft | 310 kts | 189° |
| 2026-04-30 18:04 | 40.50804 | 49.74886 | 11023 ft | 306 kts | 189° |
| 2026-04-30 18:05 | 40.42407 | 49.73432 | 10301 ft | 303 kts | 189° |
| 2026-04-30 18:06 | 40.34201 | 49.72011 | 9568 ft | 293 kts | 190° |
| 2026-04-30 18:07 | 40.26129 | 49.71004 | 8652 ft | 298 kts | 167° |
| 2026-04-30 18:08 | 40.20203 | 49.73349 | 7339 ft | 282 kts | 170° |
| 2026-04-30 18:09 | 40.13997 | 49.76920 | 6948 ft | 250 kts | 115° |
| 2026-04-30 18:10 | 40.16052 | 49.84686 | 6650 ft | 241 kts | 46° |
| 2026-04-30 18:11 | 40.20380 | 49.91224 | 5569 ft | 235 kts | 47° |
| 2026-04-30 18:11 | 40.23563 | 49.96035 | 4726 ft | 231 kts | 47° |
| 2026-04-30 18:12 | 40.26708 | 50.00807 | 3927 ft | 230 kts | 48° |
| 2026-04-30 18:13 | 40.28731 | 50.03882 | 3403 ft | 216 kts | 48° |
| 2026-04-30 18:13 | 40.31837 | 50.06533 | 2733 ft | 201 kts | 1° |
| 2026-04-30 18:14 | 40.35069 | 50.06486 | 2093 ft | 199 kts | 358° |
| 2026-04-30 18:15 | 40.39235 | 50.06421 | 1368 ft | 194 kts | 359° |
| 2026-04-30 18:15 | 40.42824 | 50.06367 | 640 ft | 152 kts | 0° |
| 2026-04-30 18:16 | 40.44843 | 50.06336 | 227 ft | 141 kts | 1° |
| 2026-04-30 18:16 | 40.46738 | 50.06306 | 10 ft | 114 kts | 359° |
| 2026-04-30 18:17 | 40.47356 | 50.06297 | 7 ft | 64 kts | 359° |
| 2026-04-30 18:17 | 40.47637 | 50.06293 | 8 ft | 24 kts | 359° |
| 2026-04-30 18:17 | 40.48025 | 50.06287 | 10 ft | 29 kts | 359° |
| 2026-04-30 18:18 | 40.48225 | 50.06283 | 9 ft | 29 kts | 359° |
| 2026-04-30 18:18 | 40.48393 | 50.06281 | 8 ft | 19 kts | 359° |
| 2026-04-30 18:18 | 40.48493 | 50.06224 | 8 ft | 15 kts | 297° |
| 2026-04-30 18:18 | 40.48489 | 50.06100 | 10 ft | 13 kts | 237° |
| 2026-04-30 18:19 | 40.48413 | 50.06068 | 8 ft | 11 kts | 181° |
| 2026-04-30 18:19 | 40.48361 | 50.06069 | 8 ft | 7 kts | 179° |
| 2026-04-30 18:19 | 40.48319 | 50.06069 | 8 ft | 5 kts | 179° |
| 2026-04-30 18:19 | 40.48286 | 50.06070 | 8 ft | 4 kts | 179° |
| 2026-04-30 18:20 | 40.48260 | 50.06070 | 8 ft | 3 kts | 179° |
| 2026-04-30 18:20 | 40.48217 | 50.06071 | 8 ft | 12 kts | 179° |
| 2026-04-30 18:20 | 40.48121 | 50.06072 | 8 ft | 14 kts | 179° |
| 2026-04-30 18:20 | 40.48015 | 50.06073 | 8 ft | 16 kts | 179° |
| 2026-04-30 18:21 | 40.47896 | 50.06075 | 8 ft | 18 kts | 179° |
| 2026-04-30 18:21 | 40.47764 | 50.06077 | 8 ft | 20 kts | 179° |
| 2026-04-30 18:21 | 40.47620 | 50.06079 | 8 ft | 22 kts | 179° |
| 2026-04-30 18:21 | 40.47460 | 50.06083 | 8 ft | 24 kts | 179° |
| 2026-04-30 18:22 | 40.47292 | 50.06084 | 8 ft | 25 kts | 179° |
| 2026-04-30 18:22 | 40.47035 | 50.06086 | 8 ft | 14 kts | 179° |
| 2026-04-30 18:22 | 40.46965 | 50.06060 | 8 ft | 10 kts | 225° |
| 2026-04-30 18:23 | 40.46946 | 50.05980 | 8 ft | 9 kts | 266° |
| 2026-04-30 18:23 | 40.46944 | 50.05881 | 8 ft | 15 kts | 268° |
| 2026-04-30 18:23 | 40.46941 | 50.05745 | 8 ft | 14 kts | 268° |
| 2026-04-30 18:23 | 40.46937 | 50.05619 | 8 ft | 15 kts | 268° |
| 2026-04-30 18:24 | 40.46932 | 50.05371 | 8 ft | 14 kts | 268° |
| 2026-04-30 18:24 | 40.46929 | 50.05250 | 8 ft | 12 kts | 268° |
| 2026-04-30 18:24 | 40.46925 | 50.05135 | 9 ft | 13 kts | 268° |
| 2026-04-30 18:25 | 40.46890 | 50.05048 | 9 ft | 11 kts | 205° |
| 2026-04-30 18:25 | 40.46762 | 50.05025 | 11 ft | 10 kts | 200° |
| 2026-04-30 18:25 | 40.46701 | 50.04993 | 9 ft | 9 kts | 202° |
| 2026-04-30 18:26 | 40.46609 | 50.04934 | 9 ft | 6 kts | 210° |
| 2026-04-30 18:26 | 40.46569 | 50.04914 | 9 ft | 6 kts | 179° |
| 2026-04-30 18:26 | 40.46537 | 50.04939 | 9 ft | 5 kts | 133° |
| 2026-04-30 18:27 | 40.46530 | 50.05032 | 9 ft | 7 kts | 69° |
| 2026-04-30 18:27 | 40.46547 | 50.05080 | 9 ft | 4 kts | 64° |
| 2026-04-30 18:28 | 40.46552 | 50.05092 | 9 ft | 0 kts | 64° |